Time;durP1;ratioP1;P1;durP2;ratioP2;P2;SDS_P1;SDS_P2;PMS_P1;PMS_P2;Temp;Humidity;BMP_temperature;BMP_pressure;BME280_temperature;BME280_humidity;BME280_pressure;Samples;Min_cycle;Max_cycle;Signal;HPM_P1;HPM_P2
2023/08/09 00:01:18;;;;;;;1.23;1.13;;;;;;;19.17;61.93;99849.53;5074611;28;20036;-93
2023/08/09 00:03:44;;;;;;;0.90;0.85;;;;;;;18.99;62.51;99819.22;5074139;28;20031;-91
2023/08/09 00:06:09;;;;;;;0.50;0.50;;;;;;;18.89;62.32;99843.72;5105211;28;20160;-90
2023/08/09 00:08:35;;;;;;;0.50;0.40;;;;;;;18.92;62.87;99858.72;5092337;28;20039;-93
2023/08/09 00:11:02;;;;;;;0.90;0.80;;;;;;;18.88;62.93;99833.97;5093766;28;20035;-93
2023/08/09 00:13:27;;;;;;;1.13;1.00;;;;;;;19.07;63.05;99873.19;5092772;28;20046;-94
2023/08/09 00:15:53;;;;;;;0.60;0.60;;;;;;;19.00;63.60;99877.97;5093011;28;20028;-94
2023/08/09 00:18:19;;;;;;;1.88;0.47;;;;;;;18.85;62.69;99863.50;5091589;28;20032;-96
2023/08/09 00:20:44;;;;;;;0.85;0.55;;;;;;;18.60;62.80;99845.91;5092656;28;20093;-96
2023/08/09 00:23:10;;;;;;;0.98;0.75;;;;;;;18.61;62.86;99852.97;5075294;28;20089;-96
2023/08/09 00:25:35;;;;;;;1.13;0.57;;;;;;;18.56;62.70;99832.75;5091809;28;20054;-95
2023/08/09 00:28:02;;;;;;;0.63;0.63;;;;;;;18.69;63.17;99860.66;5074371;28;20031;-94
2023/08/09 00:30:27;;;;;;;0.57;0.45;;;;;;;18.77;62.56;99860.28;5074484;28;20084;-90
2023/08/09 00:32:53;;;;;;;0.77;0.77;;;;;;;18.55;62.74;99809.63;5091987;28;20044;-91
2023/08/09 00:35:18;;;;;;;0.77;0.77;;;;;;;18.86;62.81;99856.34;5091274;28;20042;-91
2023/08/09 00:37:45;;;;;;;1.05;0.68;;;;;;;18.63;63.20;99822.63;5092176;28;20119;-89
2023/08/09 00:40:11;;;;;;;1.33;0.82;;;;;;;18.59;63.71;99840.63;5092279;28;20064;-88
2023/08/09 00:42:38;;;;;;;1.25;0.80;;;;;;;18.42;63.59;99812.00;5092778;28;20069;-89
2023/08/09 00:45:07;;;;;;;0.45;0.30;;;;;;;18.69;64.03;99849.06;5087508;28;20063;-89
2023/08/09 00:47:32;;;;;;;0.57;0.50;;;;;;;18.63;64.51;99836.88;5069777;28;20028;-90
2023/08/09 00:50:00;;;;;;;1.20;0.50;;;;;;;18.80;64.45;99846.78;5085974;28;20043;-90
2023/08/09 00:52:26;;;;;;;1.10;0.73;;;;;;;18.72;64.69;99843.59;5070581;28;20033;-90
2023/08/09 00:54:52;;;;;;;1.48;0.70;;;;;;;18.58;65.51;99838.88;5070409;28;20040;-91
2023/08/09 00:57:18;;;;;;;0.55;0.45;;;;;;;18.59;65.94;99854.84;5070413;28;20028;-91
2023/08/09 00:59:43;;;;;;;2.38;0.50;;;;;;;18.18;65.96;99800.63;5071490;28;20392;-90
2023/08/09 01:02:09;;;;;;;2.13;0.95;;;;;;;18.17;66.01;99804.25;5056344;28;20828;-91
2023/08/09 01:04:37;;;;;;;0.60;0.60;;;;;;;18.50;65.23;99817.00;5071752;28;20500;-89
2023/08/09 01:07:14;;;;;;;1.67;1.05;;;;;;;18.48;65.31;99811.72;5071830;28;20032;-90
2023/08/09 01:10:12;;;;;;;0.30;0.30;;;;;;;18.68;64.58;99847.34;5087096;28;20039;-92
2023/08/09 01:12:41;;;;;;;1.08;0.88;;;;;;;18.56;64.28;99824.72;4988143;28;20547;-91
2023/08/09 01:15:08;;;;;;;1.27;1.17;;;;;;;18.35;64.26;99819.44;4990066;28;20034;-92
2023/08/09 01:17:36;;;;;;;0.30;0.30;;;;;;;18.28;64.87;99817.97;4973280;28;20566;-92
2023/08/09 01:20:10;;;;;;;0.95;0.73;;;;;;;18.15;64.99;99831.00;4974505;28;20531;-94
2023/08/09 01:22:40;;;;;;;0.63;0.60;;;;;;;18.21;65.09;99843.19;4970705;28;20461;-94
2023/08/09 01:25:08;;;;;;;2.45;1.73;;;;;;;18.03;64.78;99829.75;4988925;28;20042;-90
2023/08/09 01:27:35;;;;;;;1.67;1.00;;;;;;;18.05;64.82;99857.22;4989485;28;20659;-90
2023/08/09 01:30:03;;;;;;;1.75;0.88;;;;;;;17.82;65.54;99833.31;4989787;28;20137;-90
2023/08/09 01:32:31;;;;;;;2.92;0.75;;;;;;;17.75;65.42;99798.03;4973283;28;20030;-89
2023/08/09 01:34:58;;;;;;;2.17;1.98;;;;;;;17.98;65.37;99821.06;4988174;28;20034;-89
2023/08/09 01:37:41;;;;;;;0.77;0.77;;;;;;;18.26;64.88;99857.25;4972780;28;20026;-90
2023/08/09 01:40:10;;;;;;;3.17;1.40;;;;;;;18.01;65.17;99830.72;4989749;28;20099;-90
2023/08/09 01:42:36;;;;;;;0.95;0.80;;;;;;;18.00;65.23;99842.38;4973132;28;20053;-89
2023/08/09 01:45:04;;;;;;;0.63;0.63;;;;;;;17.77;65.18;99817.50;4980692;28;20050;-89
2023/08/09 01:47:29;;;;;;;0.30;0.28;;;;;;;17.80;65.62;99849.38;4969756;28;20035;-88
2023/08/09 01:49:55;;;;;;;0.57;0.45;;;;;;;17.79;64.96;99841.44;5057902;28;20045;-90
2023/08/09 01:52:21;;;;;;;1.02;0.85;;;;;;;17.86;65.11;99858.94;5070371;28;20545;-89
2023/08/09 01:54:46;;;;;;;0.77;0.52;;;;;;;17.81;64.68;99848.44;5069964;28;20486;-90
2023/08/09 01:57:12;;;;;;;1.17;0.43;;;;;;;17.63;65.27;99831.41;5070335;28;20085;-89
2023/08/09 01:59:38;;;;;;;0.45;0.45;;;;;;;17.42;65.51;99813.63;5052639;28;20028;-86
2023/08/09 02:02:03;;;;;;;1.52;1.15;;;;;;;17.76;65.15;99865.56;5070709;28;20025;-89
2023/08/09 02:04:29;;;;;;;1.02;0.77;;;;;;;17.51;65.70;99831.94;5070260;28;20043;-89
2023/08/09 02:06:54;;;;;;;3.28;1.15;;;;;;;17.55;65.29;99844.22;5070317;28;20032;-89
2023/08/09 02:09:21;;;;;;;2.40;0.77;;;;;;;17.57;65.28;99842.34;5070194;28;20024;-92
2023/08/09 02:11:46;;;;;;;0.98;0.65;;;;;;;17.59;64.44;99856.47;5071185;28;20021;-94
2023/08/09 02:14:12;;;;;;;2.58;1.80;;;;;;;17.25;64.98;99865.84;5052422;28;20020;-92
2023/08/09 02:16:37;;;;;;;1.95;1.50;;;;;;;17.08;65.96;99861.16;5052852;28;20059;-96
2023/08/09 02:19:03;;;;;;;0.60;0.60;;;;;;;17.25;65.65;99883.63;5053275;28;20028;-95
2023/08/09 02:21:28;;;;;;;3.78;0.82;;;;;;;17.16;65.92;99852.88;5052818;28;20517;-91
2023/08/09 02:23:54;;;;;;;1.30;1.05;;;;;;;17.30;65.08;99887.88;5070874;28;20039;-94
2023/08/09 02:26:20;;;;;;;0.55;0.50;;;;;;;16.99;65.58;99864.19;5052951;28;20029;-93
2023/08/09 02:28:45;;;;;;;1.17;1.10;;;;;;;16.77;66.24;99827.69;5052328;28;20036;-94
2023/08/09 02:31:11;;;;;;;0.65;0.55;;;;;;;16.65;66.47;99852.13;5070701;28;20036;-94
2023/08/09 02:33:37;;;;;;;0.20;0.20;;;;;;;16.81;66.20;99860.44;5052245;28;20521;-92
2023/08/09 02:36:03;;;;;;;0.75;0.73;;;;;;;16.51;67.63;99838.47;5051869;28;20064;-93
2023/08/09 02:38:29;;;;;;;0.32;0.30;;;;;;;16.80;67.53;99864.00;5051591;28;20024;-92
2023/08/09 02:40:55;;;;;;;1.02;0.82;;;;;;;16.88;66.91;99871.75;5051743;28;20036;-92
2023/08/09 02:43:25;;;;;;;0.32;0.32;;;;;;;17.17;66.63;99906.13;5035436;28;20100;-92
2023/08/09 02:45:53;;;;;;;0.70;0.63;;;;;;;17.03;66.78;99865.81;5035998;28;20053;-93
2023/08/09 02:48:19;;;;;;;0.80;0.57;;;;;;;17.23;66.83;99905.03;5070152;28;20047;-90
2023/08/09 02:50:45;;;;;;;0.77;0.50;;;;;;;17.30;66.27;99898.53;5035075;28;20028;-91
2023/08/09 02:53:11;;;;;;;0.63;0.60;;;;;;;17.18;66.21;99891.88;5051771;28;20040;-90
2023/08/09 02:55:38;;;;;;;1.88;0.85;;;;;;;16.96;65.79;99857.22;5070224;28;20083;-91
2023/08/09 02:58:06;;;;;;;0.80;0.80;;;;;;;17.11;65.90;99886.84;5070437;28;20077;-92
2023/08/09 03:00:32;;;;;;;0.57;0.55;;;;;;;17.03;65.77;99881.81;5069700;28;20082;-88
2023/08/09 03:02:58;;;;;;;0.40;0.40;;;;;;;17.09;66.18;99902.91;5069053;28;20509;-90
2023/08/09 03:05:25;;;;;;;0.43;0.43;;;;;;;16.71;66.18;99843.91;5069716;28;20054;-91
2023/08/09 03:07:51;;;;;;;0.32;0.32;;;;;;;17.20;65.94;99891.81;5051593;28;20039;-90
2023/08/09 03:10:16;;;;;;;2.28;1.63;;;;;;;16.88;66.49;99869.94;5070549;28;20033;-89
2023/08/09 03:12:44;;;;;;;0.68;0.50;;;;;;;17.07;66.79;99928.75;5073428;28;21043;-90
2023/08/09 03:15:10;;;;;;;1.02;0.77;;;;;;;16.95;66.60;99887.44;5073272;28;20035;-91
2023/08/09 03:17:37;;;;;;;0.63;0.60;;;;;;;16.80;66.92;99880.00;5073283;28;20355;-90
2023/08/09 03:20:10;;;;;;;1.35;0.70;;;;;;;16.91;67.64;99919.59;5073737;28;20143;-91
2023/08/09 03:22:35;;;;;;;0.20;0.20;;;;;;;16.82;67.73;99918.09;5073518;28;20029;-89
2023/08/09 03:25:01;;;;;;;0.77;0.65;;;;;;;16.87;68.09;99940.16;5073934;28;20034;-91
2023/08/09 03:27:26;;;;;;;1.40;0.80;;;;;;;16.86;68.65;99942.84;5055155;28;20040;-88
2023/08/09 03:29:52;;;;;;;0.47;0.47;;;;;;;16.65;68.66;99905.38;5072238;28;20040;-89
2023/08/09 03:32:17;;;;;;;0.77;0.65;;;;;;;16.80;68.38;99930.59;5073615;28;20413;-90
2023/08/09 03:34:43;;;;;;;4.00;0.50;;;;;;;17.09;68.19;99952.66;5055024;28;20082;-90
2023/08/09 03:37:10;;;;;;;0.60;0.60;;;;;;;16.94;67.77;99936.31;5056237;28;20036;-91
2023/08/09 03:39:36;;;;;;;0.57;0.57;;;;;;;17.00;68.28;99962.72;5056170;28;20031;-93
2023/08/09 03:42:01;;;;;;;1.25;1.15;;;;;;;16.89;67.93;99935.63;5073916;28;20037;-93
2023/08/09 03:44:26;;;;;;;0.77;0.77;;;;;;;16.77;68.09;99950.22;5057939;28;20489;-92
2023/08/09 03:46:52;;;;;;;1.17;1.08;;;;;;;16.89;67.95;99974.72;5093155;28;20048;-89
2023/08/09 03:49:17;;;;;;;2.45;0.70;;;;;;;16.63;67.21;99950.72;5093181;28;20028;-90
2023/08/09 03:51:43;;;;;;;0.60;0.60;;;;;;;16.89;67.63;99977.41;5074775;28;20054;-87
2023/08/09 03:54:09;;;;;;;0.70;0.70;;;;;;;16.94;67.54;99967.44;5076218;28;20029;-87
2023/08/09 03:56:35;;;;;;;2.20;1.20;;;;;;;16.94;67.40;99956.78;5059637;28;20054;-90
2023/08/09 03:59:01;;;;;;;0.50;0.50;;;;;;;17.20;67.26;99971.78;5067287;28;20043;-95
2023/08/09 04:01:27;;;;;;;1.20;1.10;;;;;;;17.27;67.08;99964.41;5075534;28;20498;-93
2023/08/09 04:03:52;;;;;;;0.85;0.85;;;;;;;17.42;66.95;99973.63;5075247;28;20039;-92
2023/08/09 04:06:19;;;;;;;1.33;0.77;;;;;;;17.48;66.77;99970.72;5062668;28;20086;-94
2023/08/09 04:08:46;;;;;;;5.00;1.50;;;;;;;17.66;66.77;99991.34;5079431;28;20039;-92
2023/08/09 04:11:11;;;;;;;1.23;0.90;;;;;;;17.39;66.44;99955.06;5092011;28;20043;-93
2023/08/09 04:13:37;;;;;;;0.50;0.50;;;;;;;17.74;66.46;99995.50;5064513;28;20041;-88
2023/08/09 04:16:03;;;;;;;0.65;0.65;;;;;;;17.70;66.23;99987.63;5073098;28;20020;-88
2023/08/09 04:18:28;;;;;;;1.20;1.10;;;;;;;17.66;65.88;99951.31;5071399;28;20028;-91
2023/08/09 04:20:54;;;;;;;1.15;1.00;;;;;;;17.88;65.17;99948.66;5074231;28;20028;-92
2023/08/09 04:23:20;;;;;;;1.02;0.90;;;;;;;18.00;65.40;99971.31;5080390;28;20036;-91
2023/08/09 04:25:46;;;;;;;0.55;0.55;;;;;;;18.21;65.11;99998.06;5077597;28;20024;-88
2023/08/09 04:28:12;;;;;;;2.35;1.08;;;;;;;18.26;65.27;99974.72;5070663;28;20036;-86
2023/08/09 04:30:38;;;;;;;1.33;0.77;;;;;;;18.48;65.03;99996.03;5054656;28;20376;-94
2023/08/09 04:33:04;;;;;;;1.67;1.58;;;;;;;18.41;64.42;99952.69;5051962;28;20135;-92
2023/08/09 04:35:30;;;;;;;2.47;1.60;;;;;;;18.77;63.96;99992.09;5076372;28;20526;-90
2023/08/09 04:37:56;;;;;;;0.63;0.63;;;;;;;18.82;62.93;100005.25;5077417;28;20032;-87
2023/08/09 04:40:22;;;;;;;1.88;1.20;;;;;;;18.92;61.75;100003.94;5090454;28;20028;-89
2023/08/09 04:42:49;;;;;;;1.00;0.90;;;;;;;18.63;61.03;99948.19;5057407;28;20119;-90
2023/08/09 04:45:15;;;;;;;2.63;1.15;;;;;;;19.09;59.76;99997.84;5052898;28;20630;-92
2023/08/09 04:47:41;;;;;;;1.20;1.02;;;;;;;19.02;60.52;99979.47;5077651;28;20031;-92
2023/08/09 04:50:07;;;;;;;2.15;1.30;;;;;;;19.13;60.46;100007.44;5081670;28;20031;-86
2023/08/09 04:52:34;;;;;;;1.60;1.23;;;;;;;19.27;59.51;99996.09;5055667;28;20693;-88
2023/08/09 04:55:01;;;;;;;0.38;0.38;;;;;;;19.32;59.51;99998.56;5052541;28;20502;-87
2023/08/09 04:57:29;;;;;;;0.52;0.50;;;;;;;19.44;59.28;100018.53;5088482;28;20102;-89
2023/08/09 04:59:56;;;;;;;1.83;1.25;;;;;;;19.46;59.27;100005.94;5091228;28;20055;-89
2023/08/09 05:02:21;;;;;;;0.95;0.90;;;;;;;19.42;59.13;99978.47;5091010;28;20036;-89
2023/08/09 05:04:47;;;;;;;10.23;1.58;;;;;;;19.32;58.98;100010.16;5091209;28;20032;-84
2023/08/09 05:07:13;;;;;;;0.85;0.75;;;;;;;19.21;59.83;99996.38;5086733;28;20028;-89
2023/08/09 05:09:38;;;;;;;0.82;0.77;;;;;;;19.42;59.88;100009.72;5085011;28;20043;-89
2023/08/09 05:12:04;;;;;;;1.40;1.02;;;;;;;19.39;59.43;100020.56;5092265;28;20032;-88
2023/08/09 05:14:31;;;;;;;0.80;0.60;;;;;;;19.33;59.81;99992.28;5103165;28;20531;-88
2023/08/09 05:16:56;;;;;;;1.08;1.02;;;;;;;19.25;59.99;99987.28;5088913;28;20059;-88
2023/08/09 05:19:22;;;;;;;0.93;0.73;;;;;;;19.37;60.37;99963.59;5109891;28;20048;-89
2023/08/09 05:21:48;;;;;;;0.82;0.60;;;;;;;19.58;59.88;100013.41;5109791;28;20036;-83
2023/08/09 05:24:14;;;;;;;1.20;0.90;;;;;;;19.61;59.04;99993.66;5110612;28;20035;-88
2023/08/09 05:26:40;;;;;;;0.20;0.20;;;;;;;20.06;57.80;100032.56;5105384;28;20102;-90
2023/08/09 05:29:06;;;;;;;0.55;0.45;;;;;;;20.05;57.46;100046.91;5106795;28;20043;-89
2023/08/09 05:31:32;;;;;;;2.53;1.02;;;;;;;20.38;57.55;100048.84;5097763;28;20036;-89
2023/08/09 05:33:57;;;;;;;0.88;0.73;;;;;;;20.30;58.69;100043.88;5094582;28;20032;-88
2023/08/09 05:36:24;;;;;;;1.50;0.82;;;;;;;20.48;56.39;100015.31;5097709;28;20024;-85
2023/08/09 05:38:49;;;;;;;3.33;0.82;;;;;;;20.87;56.65;100056.25;5094803;28;20020;-84
2023/08/09 05:41:15;;;;;;;0.90;0.65;;;;;;;21.31;55.92;100046.78;5098674;28;20126;-86
2023/08/09 05:43:40;;;;;;;0.98;0.75;;;;;;;21.69;54.88;100046.50;5106493;28;20056;-89
2023/08/09 05:46:06;;;;;;;1.65;0.90;;;;;;;21.69;53.30;100007.13;5096794;28;20120;-86
2023/08/09 05:48:31;;;;;;;1.30;1.00;;;;;;;21.79;53.66;100028.94;5116060;28;20048;-89
2023/08/09 05:50:57;;;;;;;1.27;1.13;;;;;;;21.55;53.31;100013.28;5116012;28;20039;-91
2023/08/09 05:53:22;;;;;;;1.20;0.90;;;;;;;21.60;54.17;100023.75;5116430;28;20024;-85
2023/08/09 05:55:48;;;;;;;0.70;0.70;;;;;;;21.90;52.33;100013.09;5104915;28;20012;-86
2023/08/09 05:58:14;;;;;;;1.05;0.85;;;;;;;22.37;51.68;100026.56;5095113;28;20052;-88
2023/08/09 06:00:40;;;;;;;0.95;0.73;;;;;;;22.81;51.01;100017.69;5097257;28;20039;-89
2023/08/09 06:03:06;;;;;;;0.90;0.80;;;;;;;22.40;51.60;100026.38;5095848;28;20088;-88
2023/08/09 06:05:32;;;;;;;2.47;1.58;;;;;;;22.39;50.08;99971.78;5103585;28;20028;-85
2023/08/09 06:07:57;;;;;;;1.15;1.05;;;;;;;22.62;50.99;99989.22;5108796;28;20024;-86
2023/08/09 06:10:24;;;;;;;1.67;1.58;;;;;;;22.84;48.91;99991.44;5098322;28;20016;-89
2023/08/09 06:12:50;;;;;;;0.93;0.77;;;;;;;22.92;49.00;100019.72;5076444;28;20200;-90
2023/08/09 06:15:17;;;;;;;0.47;0.35;;;;;;;23.13;49.39;100022.94;5070964;28;20036;-91
2023/08/09 06:17:43;;;;;;;2.17;0.75;;;;;;;22.77;48.81;99986.53;5070446;28;20137;-92
2023/08/09 06:20:12;;;;;;;0.68;0.65;;;;;;;23.29;47.97;100004.84;5071812;28;20504;-95
2023/08/09 06:22:37;;;;;;;0.80;0.70;;;;;;;23.57;46.87;100033.59;5079521;28;20478;-95
2023/08/09 06:25:05;;;;;;;0.98;0.88;;;;;;;23.82;47.20;100037.41;5069902;28;20052;-90
2023/08/09 06:27:30;;;;;;;0.30;0.30;;;;;;;24.26;44.97;100020.16;5080211;28;20383;-92
2023/08/09 06:29:56;;;;;;;0.80;0.68;;;;;;;24.64;44.08;100002.41;5079692;28;20039;-93
2023/08/09 06:32:21;;;;;;;1.15;0.80;;;;;;;24.36;44.35;100022.22;5062392;28;20040;-92
2023/08/09 06:34:47;;;;;;;1.08;0.98;;;;;;;24.52;44.19;100019.38;5052111;28;20107;-92
2023/08/09 06:37:12;;;;;;;1.00;0.63;;;;;;;24.98;44.76;100024.34;5077341;28;20107;-88
2023/08/09 06:39:38;;;;;;;0.88;0.70;;;;;;;25.40;42.12;100021.44;5075312;28;20071;-95
2023/08/09 06:42:03;;;;;;;0.55;0.55;;;;;;;25.64;42.57;99984.53;5056528;28;20043;-93
2023/08/09 06:44:29;;;;;;;1.98;0.45;;;;;;;25.67;41.96;100008.63;5076403;28;20101;-93
2023/08/09 06:46:56;;;;;;;1.67;1.35;;;;;;;26.02;40.10;100004.31;5055861;28;20025;-93
2023/08/09 06:49:23;;;;;;;0.55;0.55;;;;;;;26.27;40.42;100006.91;5057117;28;20045;-91
2023/08/09 06:51:49;;;;;;;1.65;1.08;;;;;;;26.50;39.88;100017.78;5064273;28;20037;-96
2023/08/09 06:54:15;;;;;;;1.15;0.60;;;;;;;26.86;38.79;100004.28;5059183;28;20033;-96
2023/08/09 06:56:41;;;;;;;1.17;0.52;;;;;;;26.56;39.43;100011.91;5061441;28;20030;-96
2023/08/09 06:59:06;;;;;;;0.77;0.75;;;;;;;26.42;38.88;99990.50;5062278;28;20035;-96
2023/08/09 07:01:38;;;;;;;1.65;1.17;;;;;;;26.32;39.45;100005.69;5059791;28;20029;-96
2023/08/09 07:04:04;;;;;;;2.92;1.08;;;;;;;26.61;38.38;99995.34;5075587;28;20036;-90
2023/08/09 07:06:29;;;;;;;1.35;0.82;;;;;;;26.92;39.07;99969.47;5077991;28;20134;-95
2023/08/09 07:08:56;;;;;;;0.70;0.57;;;;;;;26.69;38.33;100001.03;5057430;28;20028;-96
2023/08/09 07:11:22;;;;;;;1.27;0.68;;;;;;;26.50;37.66;99993.47;5056129;28;20035;-95
2023/08/09 07:13:47;;;;;;;0.90;0.73;;;;;;;26.94;38.21;99975.63;5062702;28;20032;-96
2023/08/09 07:16:13;;;;;;;0.95;0.82;;;;;;;27.35;37.20;99996.84;5073470;28;20036;-96
2023/08/09 07:18:39;;;;;;;0.47;0.47;;;;;;;27.13;37.26;99931.72;5068887;28;20036;-94
2023/08/09 07:21:04;;;;;;;1.17;0.93;;;;;;;27.86;36.54;99986.28;5053375;28;20029;-95
2023/08/09 07:23:31;;;;;;;0.50;0.50;;;;;;;28.15;35.41;100001.16;5069216;28;20042;-96
2023/08/09 07:25:57;;;;;;;1.75;0.68;;;;;;;28.15;34.74;99993.03;5043847;28;20036;-95
2023/08/09 07:28:23;;;;;;;1.38;1.15;;;;;;;28.28;36.13;99954.88;5060104;28;20039;-92
2023/08/09 07:30:51;;;;;;;1.75;1.15;;;;;;;28.74;35.46;99976.22;5074915;28;20425;-96
2023/08/09 07:33:17;;;;;;;1.88;1.40;;;;;;;28.72;36.00;99953.78;5074765;28;20028;-96
2023/08/09 07:35:42;;;;;;;0.98;0.68;;;;;;;28.93;34.88;99948.34;5074212;28;20039;-94
2023/08/09 07:38:08;;;;;;;0.43;0.43;;;;;;;29.07;33.55;99940.81;5060604;28;20047;-89
2023/08/09 07:40:34;;;;;;;1.88;0.77;;;;;;;29.02;33.56;99960.22;5085485;28;20431;-94
2023/08/09 07:43:01;;;;;;;0.63;0.50;;;;;;;29.29;33.78;99965.09;5077579;28;20044;-92
2023/08/09 07:45:28;;;;;;;0.70;0.60;;;;;;;29.42;34.07;99948.56;5072820;28;20049;-94
2023/08/09 07:47:54;;;;;;;1.58;0.85;;;;;;;29.26;33.65;99945.53;5054591;28;20474;-92
2023/08/09 07:50:20;;;;;;;1.95;0.88;;;;;;;28.78;34.13;99951.53;5054596;28;20074;-93
2023/08/09 07:52:47;;;;;;;4.90;1.08;;;;;;;29.03;33.27;99953.81;5077147;28;20082;-94
2023/08/09 07:55:14;;;;;;;0.85;0.63;;;;;;;29.15;32.63;99960.03;5074773;28;20066;-91
2023/08/09 07:57:43;;;;;;;0.80;0.63;;;;;;;29.39;33.26;99943.41;5074963;28;20035;-96
2023/08/09 08:00:17;;;;;;;0.82;0.82;;;;;;;29.82;32.21;99949.53;5075569;28;20051;-91
2023/08/09 08:02:44;;;;;;;0.40;0.40;;;;;;;29.99;31.27;99915.34;5094349;28;20032;-91
2023/08/09 08:05:12;;;;;;;0.68;0.57;;;;;;;30.38;29.95;99937.09;5076032;28;20100;-92
2023/08/09 08:07:39;;;;;;;1.38;0.80;;;;;;;30.35;32.06;99951.84;5091207;28;20094;-94
2023/08/09 08:10:09;;;;;;;1.70;0.95;;;;;;;30.63;32.45;99929.34;5064967;28;20029;-96
2023/08/09 08:12:36;;;;;;;0.55;0.43;;;;;;;30.14;30.81;99894.03;5073143;28;20024;-94
2023/08/09 08:15:02;;;;;;;0.40;0.20;;;;;;;30.23;30.68;99925.81;5073792;28;20032;-95
2023/08/09 08:17:27;;;;;;;0.38;0.30;;;;;;;29.43;30.78;99936.69;5072885;28;20124;-95
2023/08/09 08:19:53;;;;;;;0.70;0.60;;;;;;;29.31;31.44;99918.78;5073362;28;20036;-95
2023/08/09 08:22:18;;;;;;;1.42;0.60;;;;;;;29.18;31.20;99894.56;5072598;28;20028;-91
2023/08/09 08:24:44;;;;;;;1.27;1.17;;;;;;;29.67;30.59;99930.03;5073111;28;20029;-90
2023/08/09 08:27:10;;;;;;;0.55;0.50;;;;;;;30.10;32.39;99926.06;5072562;28;20036;-92
2023/08/09 08:29:36;;;;;;;0.82;0.38;;;;;;;29.99;30.84;99889.00;5072550;28;20055;-93
2023/08/09 08:32:01;;;;;;;0.55;0.50;;;;;;;30.05;30.19;99906.63;5072297;28;20035;-92
2023/08/09 08:34:31;;;;;;;0.40;0.40;;;;;;;30.00;30.89;99900.75;5072633;28;20028;-91
2023/08/09 08:36:57;;;;;;;0.20;0.20;;;;;;;29.20;31.51;99905.34;5072531;28;20462;-90
2023/08/09 08:39:23;;;;;;;0.43;0.43;;;;;;;29.63;32.60;99915.00;5072017;28;20046;-92
2023/08/09 08:41:50;;;;;;;0.60;0.60;;;;;;;29.69;30.78;99879.13;5072249;28;20032;-91
2023/08/09 08:44:16;;;;;;;0.55;0.30;;;;;;;29.55;31.71;99893.09;5072172;28;20029;-92
2023/08/09 08:46:42;;;;;;;0.65;0.40;;;;;;;30.03;30.87;99902.31;5074980;28;20039;-96
2023/08/09 08:49:12;;;;;;;0.35;0.32;;;;;;;29.65;30.67;99897.53;5058039;28;20032;-93
2023/08/09 08:51:39;;;;;;;0.43;0.20;;;;;;;29.86;30.63;99906.59;5054876;28;20032;-94
2023/08/09 08:54:06;;;;;;;0.32;0.32;;;;;;;29.42;31.05;99910.53;5054460;28;20032;-94
2023/08/09 08:56:31;;;;;;;0.73;0.40;;;;;;;29.76;30.86;99896.56;5054830;28;20064;-93
2023/08/09 08:58:59;;;;;;;1.13;0.60;;;;;;;30.17;30.33;99880.16;5071666;28;20079;-89
2023/08/09 09:01:26;;;;;;;1.90;0.70;;;;;;;29.67;30.15;99864.78;5073622;28;20115;-94
2023/08/09 09:03:53;;;;;;;0.40;0.25;;;;;;;29.99;30.41;99877.28;5073105;28;20048;-93
2023/08/09 09:06:19;;;;;;;0.25;0.25;;;;;;;29.92;30.74;99881.56;5058729;28;20040;-95
2023/08/09 09:08:53;;;;;;;4.43;1.08;;;;;;;29.80;30.36;99870.84;5075981;28;20036;-94
2023/08/09 09:11:28;;;;;;;2.13;0.47;;;;;;;29.38;29.96;99862.03;5093607;28;20064;-94
2023/08/09 09:13:53;;;;;;;3.90;1.27;;;;;;;29.59;29.56;99842.91;5073900;28;20482;-93
2023/08/09 09:16:20;;;;;;;0.35;0.30;;;;;;;29.78;30.26;99840.22;5092347;28;20024;-95
2023/08/09 09:18:48;;;;;;;0.20;0.20;;;;;;;29.86;28.45;99820.50;5092870;28;20093;-92
2023/08/09 09:21:16;;;;;;;0.32;0.30;;;;;;;29.69;29.55;99835.63;5092543;28;20024;-94
2023/08/09 09:23:42;;;;;;;0.40;0.30;;;;;;;29.95;28.81;99843.22;5091833;28;20047;-91
2023/08/09 09:26:14;;;;;;;0.10;0.10;;;;;;;29.76;29.96;99855.78;5091772;28;20047;-94
2023/08/09 09:28:44;;;;;;;0.40;0.40;;;;;;;29.58;29.60;99843.91;5092149;28;20020;-93
2023/08/09 09:31:12;;;;;;;0.50;0.47;;;;;;;29.42;29.31;99855.34;5092409;28;20020;-93
2023/08/09 09:33:41;;;;;;;0.30;0.30;;;;;;;29.75;30.15;99845.06;5092326;28;20037;-94
2023/08/09 09:36:10;;;;;;;0.20;0.20;;;;;;;29.90;29.37;99821.06;5092204;28;20032;-93
2023/08/09 09:38:36;;;;;;;0.63;0.25;;;;;;;29.60;29.02;99814.75;5092114;28;20024;-93
2023/08/09 09:41:03;;;;;;;0.30;0.30;;;;;;;29.47;30.12;99823.16;5091359;28;20030;-91
2023/08/09 09:43:32;;;;;;;0.52;0.30;;;;;;;29.78;29.27;99813.03;5091987;28;20081;-94
2023/08/09 09:45:58;;;;;;;0.35;0.20;;;;;;;29.94;29.63;99811.63;5067406;28;20143;-95
2023/08/09 09:48:26;;;;;;;0.20;0.20;;;;;;;30.49;28.74;99833.56;5092008;28;20181;-92
2023/08/09 09:50:51;;;;;;;0.20;0.15;;;;;;;30.14;29.14;99832.31;5072757;28;20119;-91
2023/08/09 09:53:19;;;;;;;0.25;0.25;;;;;;;30.30;28.77;99828.97;5074597;28;20056;-92
2023/08/09 09:55:46;;;;;;;0.82;0.50;;;;;;;30.48;31.53;99822.81;5094894;28;20118;-96
2023/08/09 09:58:13;;;;;;;0.95;0.45;;;;;;;30.90;29.86;99827.81;5077086;28;20100;-95
2023/08/09 10:01:02;;;;;;;0.65;0.32;;;;;;;30.52;28.68;99797.88;5078721;28;20040;-95
2023/08/09 10:03:31;;;;;;;0.30;0.28;;;;;;;30.47;28.46;99811.06;5064913;28;20048;-94
2023/08/09 10:06:02;;;;;;;0.90;0.55;;;;;;;30.10;28.09;99825.44;5071777;28;20021;-96
2023/08/09 10:08:37;;;;;;;0.55;0.40;;;;;;;30.13;29.21;99818.88;5078199;28;20097;-92
2023/08/09 10:11:09;;;;;;;12.23;1.30;;;;;;;29.70;28.75;99791.13;5065278;28;20097;-96
2023/08/09 10:13:41;;;;;;;11.35;1.25;;;;;;;29.70;29.61;99815.59;5076390;28;20024;-94
2023/08/09 10:16:10;;;;;;;0.55;0.55;;;;;;;29.59;29.54;99785.84;5060043;28;20036;-93
2023/08/09 10:18:50;;;;;;;0.85;0.35;;;;;;;29.98;30.80;99791.25;5066238;28;20025;-89
2023/08/09 10:21:28;;;;;;;1.23;0.50;;;;;;;30.34;28.83;99786.03;5122602;22;20079;-93
2023/08/09 10:24:07;;;;;;;0.40;0.25;;;;;;;30.74;28.26;99798.50;5049067;28;20130;-95
2023/08/09 10:26:45;;;;;;;1.08;0.43;;;;;;;30.39;28.43;99797.34;5070875;28;20047;-94
2023/08/09 10:29:21;;;;;;;0.30;0.30;;;;;;;29.39;28.43;99746.94;5054080;28;20097;-89
2023/08/09 10:31:54;;;;;;;0.22;0.22;;;;;;;29.74;30.48;99795.28;5054100;28;20024;-96
2023/08/09 10:34:31;;;;;;;0.20;0.20;;;;;;;29.24;29.94;99776.38;5071312;28;20471;-96
2023/08/09 10:36:59;;;;;;;0.60;0.40;;;;;;;29.42;28.48;99763.81;5090605;28;20096;-94
2023/08/09 10:39:25;;;;;;;0.40;0.40;;;;;;;29.10;28.76;99761.31;5089541;28;20099;-92
2023/08/09 10:42:03;;;;;;;1.75;0.40;;;;;;;29.46;28.61;99778.00;5071572;28;20123;-91
2023/08/09 10:44:45;;;;;;;0.17;0.17;;;;;;;29.58;28.41;99774.13;5072282;28;20032;-89
2023/08/09 10:47:12;;;;;;;0.30;0.30;;;;;;;29.91;29.83;99779.28;5089790;28;20115;-85
2023/08/09 10:49:47;;;;;;;0.73;0.28;;;;;;;29.94;27.73;99758.09;5089246;28;20024;-86
2023/08/09 10:52:18;;;;;;;0.32;0.32;;;;;;;29.68;27.44;99749.66;5075757;28;20029;-96
2023/08/09 10:54:45;;;;;;;1.55;0.20;;;;;;;29.62;27.69;99736.63;5073737;28;20032;-91
2023/08/09 10:57:12;;;;;;;0.20;0.13;;;;;;;29.41;28.19;99725.91;5068603;28;20044;-93
2023/08/09 10:59:39;;;;;;;1.67;0.95;;;;;;;29.01;28.31;99727.75;5070229;28;20053;-93
2023/08/09 11:02:06;;;;;;;0.32;0.17;;;;;;;28.66;28.43;99749.97;5051910;28;20033;-94
2023/08/09 11:04:32;;;;;;;0.73;0.38;;;;;;;29.21;28.75;99758.53;5069118;28;20051;-92
2023/08/09 11:06:58;;;;;;;0.32;0.32;;;;;;;29.23;28.40;99747.53;5051919;28;20514;-87
2023/08/09 11:09:29;;;;;;;0.63;0.22;;;;;;;29.25;27.64;99729.22;5087574;28;20042;-95
2023/08/09 11:11:55;;;;;;;0.17;0.17;;;;;;;29.38;27.51;99716.22;5049149;28;20041;-96
2023/08/09 11:14:22;;;;;;;0.22;0.22;;;;;;;29.75;27.48;99742.63;5066029;28;20043;-90
2023/08/09 11:16:50;;;;;;;0.30;0.30;;;;;;;29.21;27.61;99741.34;5057682;28;20039;-94
2023/08/09 11:19:18;;;;;;;0.20;0.20;;;;;;;29.20;28.57;99737.78;5038014;28;20110;-96
2023/08/09 11:21:56;;;;;;;0.13;0.13;;;;;;;29.33;28.90;99688.59;5069742;28;20101;-95
2023/08/09 11:24:26;;;;;;;0.40;0.22;;;;;;;29.44;28.04;99706.63;5077158;28;20036;-95
2023/08/09 11:26:54;;;;;;;0.20;0.05;;;;;;;29.25;28.04;99696.63;5056149;28;20036;-90
2023/08/09 11:29:21;;;;;;;0.30;0.30;;;;;;;29.21;28.20;99706.06;5050795;28;20553;-92
2023/08/09 11:31:50;;;;;;;0.82;0.38;;;;;;;29.23;27.64;99704.06;5059543;28;20063;-88